Valley, WA

1:10 AM PST on February 14, 2016 (GMT -0800)
405 E. Lincoln | | Change Station
CLOSE
Current Station
Personal Weather Station
Location: Chewelah, WA
Elevation: 1671 ft
Nearby Weather Stations

Elev 1671 ft 48.28 °N, 117.71 °W | Updated 1 minute ago

Overcast
Overcast
40.7 °F
Feels Like 41 °F
N
2.0
Wind Variable Wind from SE
Gusts 3.0 mph

Today
High -- | Low -- °F
--% Chance of Precip.
Yesterday
High -- | Low -- °F
Precip. -- in
Pressure 30.05 in
Visibility 10.0 miles
Clouds Few 800 ft
Overcast 1200 ft
Windchill 41 °F
Dew Point 38 °F
Humidity 90%
Rainfall 0.00 in
Snow Depth Not available.
7:00 AM 5:11 PM
Waxing Crescent, 39% visible
SPECI KDEW 140903Z AUTO 20011KT 10SM FEW008 OVC012 04/02 A3005 RMK AO2 T00390022 TSNO
Pressure 30.05 in
Visibility 10.0 miles
Clouds Few 800 ft
Overcast 1200 ft
Windchill 41 °F
Dew Point 38 °F
Humidity 90%
Rainfall 0.00 in
Snow Depth Not available.
7:00 AM 5:11 PM
Waxing Crescent, 39% visible
SPECI KDEW 140903Z AUTO 20011KT 10SM FEW008 OVC012 04/02 A3005 RMK AO2 T00390022 TSNO

10-Day Weather Forecast

Almanac

Astronomy

Feb. 14, 2016 Rise Set
Actual Time
Civil Twilight
Nautical Twilight
Astronomical Twilight
Moon
Length of Visible Light
Length of Day
Tomorrow will be .
, % of the Moon is Illuminated

Today's Extremes

State Highs State Lows

Community

WunderPhotos

Upload Photos

1,892,763 photos uploaded!

WunderBlog® & News

Nearby

Air Quality

  Air Quality AQ Index Pollutant
Not available.

Snow Depth

Station Depth Elevation

Earthquake Activity

City Distance Mag. Time & Date
Minimum magnitude displayed is 2.5.

Coastal Water Temperatures

Place Temperature

Stations

Nearby Weather Stations

Station Location Temp. Windchill Dew Point Humidity Wind Precip. Elev Updated Type
                   

Watches & Warnings

There are currently no watches in effect.